Observation data for Guthrie on 05/24/2019      Previous  Date  Next       Current Mesonet Observations  Soil Data  Daily Summary Page  Observations in Plain Language
KPFS 240500Z 16006KT 23/18 A2988 RMK A01 T02330183  RH  078%=      5-min Rain = 0
KPFS 240505Z 16007KT 23/18 A2988 RMK A01 T02320184  RH  079%=      5-min Rain = 0
KPFS 240510Z 16007KT 23/18 A2988 RMK A01 T02310184  RH  079%=      5-min Rain = 0
KPFS 240515Z 16007KT 23/18 A2988 RMK A01 T02300184  RH  079%=      5-min Rain = 0
KPFS 240520Z 16008KT 23/18 A2988 RMK A01 T02290184  RH  080%=      5-min Rain = 0
KPFS 240525Z 16008KT 23/18 A2988 RMK A01 T02280183  RH  080%=      5-min Rain = 0
KPFS 240530Z 16009KT 23/18 A2988 RMK A01 T02280184  RH  080%=      5-min Rain = 0
KPFS 240535Z 16010KT 23/18 A2987 RMK A01 T02290183  RH  079%=      5-min Rain = 0
KPFS 240540Z 15010KT 23/18 A2987 RMK A01 T02290183  RH  079%=      5-min Rain = 0
KPFS 240545Z 15010KT 23/18 A2987 RMK A01 T02290183  RH  079%=      5-min Rain = 0
KPFS 240550Z 15010KT 23/18 A2986 RMK A01 T02300183  RH  079%=      5-min Rain = 0
KPFS 240555Z 16008KT 23/18 A2987 RMK A01 T02300183  RH  079%=      5-min Rain = 0
KPFS 240600Z 16007G12KT 23/18 A2987 RMK A01 T02300183  RH  079%=      5-min Rain = 0
KPFS 240605Z 16006KT 23/18 A2987 RMK A01 T02300182  RH  079%=      5-min Rain = 0
KPFS 240610Z 15005KT 23/18 A2987 RMK A01 T02290182  RH  079%=      5-min Rain = 0
KPFS 240615Z 15006KT 23/18 A2987 RMK A01 T02290182  RH  079%=      5-min Rain = 0
KPFS 240620Z 16005KT 23/18 A2987 RMK A01 T02300182  RH  079%=      5-min Rain = 0
KPFS 240625Z 15005KT 23/18 A2988 RMK A01 T02300182  RH  078%=      5-min Rain = 0
KPFS 240630Z 14005KT 23/18 A2988 RMK A01 T02300182  RH  078%=      5-min Rain = 0
KPFS 240635Z 14005KT 23/18 A2988 RMK A01 T02300182  RH  079%=      5-min Rain = 0
KPFS 240640Z 15005KT 23/18 A2988 RMK A01 T02290182  RH  079%=      5-min Rain = 0
KPFS 240645Z 15005KT 23/18 A2988 RMK A01 T02290182  RH  079%=      5-min Rain = 0
KPFS 240650Z 14005KT 23/18 A2988 RMK A01 T02290182  RH  079%=      5-min Rain = 0
KPFS 240655Z 15004KT 23/18 A2989 RMK A01 T02290182  RH  079%=      5-min Rain = 0
KPFS 240700Z 15004KT 23/18 A2989 RMK A01 T02290182  RH  079%=      5-min Rain = 0
KPFS 240705Z 16003KT 23/18 A299 RMK A01 T02300182  RH  078%=      5-min Rain = 0
KPFS 240710Z 18002KT 23/18 A299 RMK A01 T02300182  RH  078%=      5-min Rain = 0
KPFS 240715Z 19001KT 23/18 A299 RMK A01 T02300182  RH  078%=      5-min Rain = 0
KPFS 240720Z 20001KT 23/18 A2991 RMK A01 T02300182  RH  078%=      5-min Rain = 0
KPFS 240725Z 28001KT 23/18 A2991 RMK A01 T02290182  RH  078%=      5-min Rain = 0
KPFS 240730Z 31002KT 23/18 A2991 RMK A01 T02280183  RH  080%=      5-min Rain = 0
KPFS 240735Z 31002KT 23/18 A2991 RMK A01 T02270183  RH  081%=      5-min Rain = 0
KPFS 240740Z 30002KT 23/18 A2992 RMK A01 T02270184  RH  081%=      5-min Rain = 0
KPFS 240745Z 29003KT 23/18 A2992 RMK A01 T02270184  RH  081%=      5-min Rain = 0
KPFS 240750Z 30005G10KT 23/18 A2992 RMK A01 T02270184  RH  081%=      5-min Rain = 0
KPFS 240755Z 29005KT 23/18 A2992 RMK A01 T02270182  RH  080%=      5-min Rain = 0
KPFS 240800Z 33006KT 23/18 A2992 RMK A01 T02260181  RH  080%=      5-min Rain = 0
KPFS 240805Z 00006KT 22/18 A2992 RMK A01 T02240181  RH  081%=      5-min Rain = 0
KPFS 240810Z 01007KT 22/18 A2992 RMK A01 T02190182  RH  084%=      5-min Rain = 0
KPFS 240815Z 03004KT 22/18 A2992 RMK A01 T02170183  RH  086%=      5-min Rain = 0.01
KPFS 240820Z 03004KT 21/18 A2992 RMK A01 T02140184  RH  087%=      5-min Rain = 0.01
KPFS 240825Z 02003KT 21/18 A2992 RMK A01 T02130184  RH  088%=      5-min Rain = 0
KPFS 240830Z 00003KT 21/19 A2991 RMK A01 T02120185  RH  089%=      5-min Rain = 0
KPFS 240835Z 01003KT 21/19 A2991 RMK A01 T02120185  RH  089%=      5-min Rain = 0
KPFS 240840Z 02004KT 21/19 A2991 RMK A01 T02120186  RH  090%=      5-min Rain = 0.01
KPFS 240845Z 02004KT 21/19 A2991 RMK A01 T02110186  RH  090%=      5-min Rain = 0
KPFS 240850Z 02004KT 21/19 A2991 RMK A01 T02110186  RH  091%=      5-min Rain = 0.01
KPFS 240855Z 02004KT 21/19 A2991 RMK A01 T02090186  RH  091%=      5-min Rain = 0
KPFS 240900Z 00004KT 21/19 A2991 RMK A01 T02080186  RH  092%=      5-min Rain = 0.02
KPFS 240905Z 34003KT 21/19 A2991 RMK A01 T02070186  RH  093%=      5-min Rain = 0
KPFS 240910Z 03003KT 21/19 A2991 RMK A01 T02050186  RH  093%=      5-min Rain = 0
KPFS 240915Z 03003KT 20/19 A2991 RMK A01 T02040185  RH  094%=      5-min Rain = 0
KPFS 240920Z 01002KT 20/19 A2991 RMK A01 T02040185  RH  094%=      5-min Rain = 0.01
KPFS 240925Z 02003KT 20/19 A299 RMK A01 T02030185  RH  094%=      5-min Rain = 0
KPFS 240930Z 02002KT 20/19 A299 RMK A01 T02030185  RH  094%=      5-min Rain = 0
KPFS 240935Z 02002KT 20/19 A299 RMK A01 T02030185  RH  095%=      5-min Rain = 0
KPFS 240940Z 02003KT 20/19 A299 RMK A01 T02020185  RH  095%=      5-min Rain = 0
KPFS 240945Z 02002KT 20/19 A2991 RMK A01 T02020185  RH  095%=      5-min Rain = 0
KPFS 240950Z 32001KT 20/19 A2991 RMK A01 T02030186  RH  095%=      5-min Rain = 0
KPFS 240955Z 33000KT 20/19 A2991 RMK A01 T02030186  RH  095%=      5-min Rain = 0
KPFS 241000Z 05001KT 20/19 A2991 RMK A01 T02030187  RH  095%=      5-min Rain = 0
KPFS 241005Z 07003KT 20/19 A2991 RMK A01 T02020185  RH  095%=      5-min Rain = 0
KPFS 241010Z 07004KT 20/19 A2991 RMK A01 T02020186  RH  095%=      5-min Rain = 0
KPFS 241015Z 08004KT 20/19 A2991 RMK A01 T02030186  RH  095%=      5-min Rain = 0
KPFS 241020Z 08005KT 20/19 A2991 RMK A01 T02040188  RH  095%=      5-min Rain = 0.01
KPFS 241025Z 09004KT 21/19 A2992 RMK A01 T02050188  RH  095%=      5-min Rain = 0
KPFS 241030Z 09004KT 21/19 A2992 RMK A01 T02050189  RH  095%=      5-min Rain = 0
KPFS 241035Z 10005KT 21/19 A2992 RMK A01 T02060189  RH  095%=      5-min Rain = 0
KPFS 241040Z 11004KT 21/19 A2992 RMK A01 T02060189  RH  095%=      5-min Rain = 0
KPFS 241045Z 11005KT 21/19 A2992 RMK A01 T02060189  RH  095%=      5-min Rain = 0
KPFS 241050Z 11005KT 21/19 A2992 RMK A01 T02070190  RH  095%=      5-min Rain = 0
KPFS 241055Z 11006KT 21/19 A2992 RMK A01 T02070191  RH  096%=      5-min Rain = 0
KPFS 241100Z 11006KT 21/19 A2992 RMK A01 T02080192  RH  096%=      5-min Rain = 0
KPFS 241105Z 11006KT 21/19 A2992 RMK A01 T02090193  RH  095%=      5-min Rain = 0
KPFS 241110Z 11005KT 21/19 A2992 RMK A01 T02100193  RH  095%=      5-min Rain = 0
KPFS 241115Z 11005KT 21/19 A2992 RMK A01 T02100193  RH  095%=      5-min Rain = 0
KPFS 241120Z 11005KT 21/19 A2992 RMK A01 T02110194  RH  095%=      5-min Rain = 0
KPFS 241125Z 11003KT 21/19 A2993 RMK A01 T02110194  RH  095%=      5-min Rain = 0
KPFS 241130Z 12003KT 21/20 A2993 RMK A01 T02120195  RH  095%=      5-min Rain = 0
KPFS 241135Z 12003KT 21/20 A2993 RMK A01 T02120195  RH  095%=      5-min Rain = 0
KPFS 241140Z 12003KT 21/20 A2993 RMK A01 T02120195  RH  095%=      5-min Rain = 0
KPFS 241145Z 12002KT 21/20 A2993 RMK A01 T02120196  RH  096%=      5-min Rain = 0
KPFS 241150Z 13002KT 21/20 A2993 RMK A01 T02120196  RH  096%=      5-min Rain = 0
KPFS 241155Z 12003KT 21/20 A2993 RMK A01 T02120196  RH  096%=      5-min Rain = 0
KPFS 241200Z 12003KT 21/20 A2993 RMK A01 T02120196  RH  096%=      5-min Rain = 0
KPFS 241205Z 13003KT 21/20 A2993 RMK A01 T02130197  RH  096%=      5-min Rain = 0
KPFS 241210Z 12003KT 21/20 A2993 RMK A01 T02130197  RH  096%=      5-min Rain = 0
KPFS 241215Z 13003KT 21/20 A2993 RMK A01 T02130197  RH  096%=      5-min Rain = 0
KPFS 241220Z 13004KT 21/20 A2993 RMK A01 T02130197  RH  096%=      5-min Rain = 0
KPFS 241225Z 13003KT 21/20 A2993 RMK A01 T02130197  RH  096%=      5-min Rain = 0
KPFS 241230Z 13003KT 21/20 A2994 RMK A01 T02130197  RH  096%=      5-min Rain = 0
KPFS 241235Z 14002KT 21/20 A2994 RMK A01 T02130197  RH  096%=      5-min Rain = 0
KPFS 241240Z 14003KT 21/20 A2994 RMK A01 T02130197  RH  096%=      5-min Rain = 0
KPFS 241245Z 14004KT 21/20 A2994 RMK A01 T02130197  RH  096%=      5-min Rain = 0
KPFS 241250Z 14004KT 21/20 A2994 RMK A01 T02130197  RH  096%=      5-min Rain = 0
KPFS 241255Z 14004KT 21/20 A2994 RMK A01 T02130197  RH  096%=      5-min Rain = 0
KPFS 241300Z 15004KT 21/20 A2994 RMK A01 T02140197  RH  096%=      5-min Rain = 0
KPFS 241305Z 14005KT 21/20 A2994 RMK A01 T02140198  RH  096%=      5-min Rain = 0
KPFS 241310Z 14005KT 22/20 A2994 RMK A01 T02150198  RH  096%=      5-min Rain = 0
KPFS 241315Z 14005KT 22/20 A2994 RMK A01 T02150199  RH  096%=      5-min Rain = 0
KPFS 241320Z 14006KT 22/20 A2994 RMK A01 T02150199  RH  096%=      5-min Rain = 0
KPFS 241325Z 14006KT 22/20 A2994 RMK A01 T02150199  RH  095%=      5-min Rain = 0
KPFS 241330Z 13006KT 22/20 A2994 RMK A01 T02160199  RH  095%=      5-min Rain = 0
KPFS 241335Z 14006KT 22/20 A2994 RMK A01 T02160199  RH  095%=      5-min Rain = 0
KPFS 241340Z 14007KT 22/20 A2994 RMK A01 T02170200  RH  095%=      5-min Rain = 0
KPFS 241345Z 14008KT 22/20 A2994 RMK A01 T02180200  RH  095%=      5-min Rain = 0
KPFS 241350Z 14008KT 22/20 A2994 RMK A01 T02180200  RH  095%=      5-min Rain = 0
KPFS 241355Z 14007KT 22/20 A2994 RMK A01 T02190200  RH  095%=      5-min Rain = 0
KPFS 241400Z 14007KT 22/20 A2994 RMK A01 T02200201  RH  094%=      5-min Rain = 0
KPFS 241405Z 14008KT 22/20 A2994 RMK A01 T02210202  RH  094%=      5-min Rain = 0
KPFS 241410Z 14009KT 22/20 A2994 RMK A01 T02220202  RH  094%=      5-min Rain = 0
KPFS 241415Z 14010KT 22/20 A2994 RMK A01 T02230202  RH  093%=      5-min Rain = 0
KPFS 241420Z 14009KT 22/20 A2994 RMK A01 T02240202  RH  093%=      5-min Rain = 0
KPFS 241425Z 14011G16KT 23/20 A2994 RMK A01 T02250202  RH  092%=      5-min Rain = 0
KPFS 241430Z 14012KT 23/20 A2994 RMK A01 T02270202  RH  091%=      5-min Rain = 0
KPFS 241435Z 14011G16KT 23/20 A2994 RMK A01 T02290203  RH  091%=      5-min Rain = 0
KPFS 241440Z 14010G15KT 23/21 A2994 RMK A01 T02320205  RH  090%=      5-min Rain = 0
KPFS 241445Z 15012G18KT 23/21 A2994 RMK A01 T02340205  RH  089%=      5-min Rain = 0
KPFS 241450Z 15011KT 24/21 A2994 RMK A01 T02350205  RH  088%=      5-min Rain = 0
KPFS 241455Z 15014KT 24/20 A2994 RMK A01 T02360203  RH  087%=      5-min Rain = 0
KPFS 241500Z 15012KT 24/20 A2994 RMK A01 T02370204  RH  087%=      5-min Rain = 0
KPFS 241505Z 15013G20KT 24/21 A2994 RMK A01 T02390205  RH  086%=      5-min Rain = 0
KPFS 241510Z 15016KT 24/20 A2994 RMK A01 T02410202  RH  084%=      5-min Rain = 0
KPFS 241515Z 15017G23KT 24/20 A2994 RMK A01 T02420201  RH  082%=      5-min Rain = 0
KPFS 241520Z 15015G21KT 24/20 A2994 RMK A01 T02420200  RH  082%=      5-min Rain = 0
KPFS 241525Z 15015G21KT 24/20 A2994 RMK A01 T02440201  RH  081%=      5-min Rain = 0
KPFS 241530Z 15014G19KT 25/20 A2994 RMK A01 T02450201  RH  081%=      5-min Rain = 0
KPFS 241535Z 15015KT 25/20 A2994 RMK A01 T02460201  RH  081%=      5-min Rain = 0
KPFS 241540Z 15016G22KT 25/20 A2994 RMK A01 T02480201  RH  079%=      5-min Rain = 0
KPFS 241545Z 15015G21KT 25/20 A2994 RMK A01 T02500202  RH  079%=      5-min Rain = 0
KPFS 241550Z 15017G24KT 25/20 A2993 RMK A01 T02500200  RH  078%=      5-min Rain = 0
KPFS 241555Z 15016G21KT 25/20 A2994 RMK A01 T02500200  RH  078%=      5-min Rain = 0
KPFS 241600Z 15015G21KT 25/20 A2994 RMK A01 T02520202  RH  079%=      5-min Rain = 0
KPFS 241605Z 16016KT 25/20 A2994 RMK A01 T02500201  RH  079%=      5-min Rain = 0
KPFS 241610Z 16017G24KT 25/20 A2994 RMK A01 T02510201  RH  078%=      5-min Rain = 0
KPFS 241615Z 15015G21KT 26/20 A2994 RMK A01 T02560203  RH  077%=      5-min Rain = 0
KPFS 241620Z 15015G20KT 26/20 A2994 RMK A01 T02550201  RH  076%=      5-min Rain = 0
KPFS 241625Z 15017G22KT 25/20 A2994 RMK A01 T02490199  RH  078%=      5-min Rain = 0
KPFS 241630Z 16015G21KT 25/20 A2994 RMK A01 T02480199  RH  079%=      5-min Rain = 0
KPFS 241635Z 16016G22KT 25/20 A2994 RMK A01 T02460197  RH  079%=      5-min Rain = 0
KPFS 241640Z 16015G20KT 25/20 A2994 RMK A01 T02450198  RH  079%=      5-min Rain = 0
KPFS 241645Z 16015G22KT 25/20 A2994 RMK A01 T02470198  RH  079%=      5-min Rain = 0
KPFS 241650Z 16014G19KT 25/20 A2995 RMK A01 T02470199  RH  079%=      5-min Rain = 0
KPFS 241655Z 16015KT 25/20 A2995 RMK A01 T02470198  RH  079%=      5-min Rain = 0
KPFS 241700Z 16015G20KT 25/20 A2994 RMK A01 T02460198  RH  079%=      5-min Rain = 0
KPFS 241705Z 16013G18KT 25/20 A2994 RMK A01 T02490201  RH  079%=      5-min Rain = 0
KPFS 241710Z 16013KT 26/20 A2994 RMK A01 T02550203  RH  077%=      5-min Rain = 0
KPFS 241715Z 16014G19KT 26/20 A2994 RMK A01 T02610204  RH  075%=      5-min Rain = 0
KPFS 241720Z 15015G21KT 26/20 A2994 RMK A01 T02570200  RH  075%=      5-min Rain = 0
KPFS 241725Z 16015G20KT 25/20 A2994 RMK A01 T02520200  RH  077%=      5-min Rain = 0
KPFS 241730Z 16015G20KT 25/20 A2994 RMK A01 T02500199  RH  078%=      5-min Rain = 0
KPFS 241735Z 15014G20KT 25/20 A2994 RMK A01 T02520200  RH  077%=      5-min Rain = 0
KPFS 241740Z 16014G19KT 26/20 A2994 RMK A01 T02560202  RH  076%=      5-min Rain = 0
KPFS 241745Z 15015G22KT 26/20 A2994 RMK A01 T02560200  RH  075%=      5-min Rain = 0
KPFS 241750Z 15018G24KT 25/20 A2994 RMK A01 T02530198  RH  076%=      5-min Rain = 0
KPFS 241755Z 16015G20KT 26/20 A2994 RMK A01 T02560200  RH  075%=      5-min Rain = 0
KPFS 241800Z 16014G20KT 26/20 A2994 RMK A01 T02560200  RH  076%=      5-min Rain = 0
KPFS 241805Z 15015KT 26/20 A2994 RMK A01 T02600202  RH  075%=      5-min Rain = 0
KPFS 241810Z 16015G20KT 26/20 A2993 RMK A01 T02590200  RH  074%=      5-min Rain = 0
KPFS 241815Z 16016G21KT 27/20 A2993 RMK A01 T02660203  RH  073%=      5-min Rain = 0
KPFS 241820Z 16016G22KT 27/20 A2993 RMK A01 T02700204  RH  071%=      5-min Rain = 0
KPFS 241825Z 16017G22KT 27/20 A2993 RMK A01 T02720204  RH  070%=      5-min Rain = 0
KPFS 241830Z 16018G24KT 27/20 A2992 RMK A01 T02710202  RH  070%=      5-min Rain = 0
KPFS 241835Z 16017G23KT 27/20 A2992 RMK A01 T02720204  RH  070%=      5-min Rain = 0
KPFS 241840Z 16020G25KT 27/20 A2992 RMK A01 T02740203  RH  069%=      5-min Rain = 0
KPFS 241845Z 15019G25KT 27/20 A2992 RMK A01 T02730202  RH  069%=      5-min Rain = 0
KPFS 241850Z 16016G22KT 27/20 A2991 RMK A01 T02710202  RH  070%=      5-min Rain = 0
KPFS 241855Z 15016G24KT 27/20 A2991 RMK A01 T02720204  RH  070%=      5-min Rain = 0
KPFS 241900Z 16017G24KT 27/20 A2991 RMK A01 T02720202  RH  070%=      5-min Rain = 0
KPFS 241905Z 16016G23KT 27/20 A2991 RMK A01 T02690202  RH  071%=      5-min Rain = 0
KPFS 241910Z 16017G23KT 27/20 A2991 RMK A01 T02680199  RH  070%=      5-min Rain = 0
KPFS 241915Z 17016G22KT 27/20 A2991 RMK A01 T02680200  RH  070%=      5-min Rain = 0
KPFS 241920Z 16015G21KT 27/20 A2991 RMK A01 T02710201  RH  070%=      5-min Rain = 0
KPFS 241925Z 15012G20KT 27/20 A2991 RMK A01 T02710202  RH  070%=      5-min Rain = 0
KPFS 241930Z 14012KT 27/20 A2991 RMK A01 T02660202  RH  072%=      5-min Rain = 0
KPFS 241935Z 14013KT 27/20 A2991 RMK A01 T02660202  RH  072%=      5-min Rain = 0
KPFS 241940Z 15012KT 27/20 A2991 RMK A01 T02660202  RH  072%=      5-min Rain = 0
KPFS 241945Z 15009KT 26/20 A2991 RMK A01 T02630202  RH  073%=      5-min Rain = 0
KPFS 241950Z 15009G14KT 26/20 A299 RMK A01 T02620202  RH  074%=      5-min Rain = 0
KPFS 241955Z 14010G15KT 26/20 A2989 RMK A01 T02620203  RH  074%=      5-min Rain = 0
KPFS 242000Z 14010G15KT 26/20 A2989 RMK A01 T02610203  RH  075%=      5-min Rain = 0
KPFS 242005Z 15012G19KT 26/20 A2989 RMK A01 T02610203  RH  075%=      5-min Rain = 0
KPFS 242010Z 15015G22KT 26/20 A2989 RMK A01 T02640201  RH  073%=      5-min Rain = 0
KPFS 242015Z 16015G21KT 27/20 A2989 RMK A01 T02670200  RH  071%=      5-min Rain = 0
KPFS 242020Z 15014G21KT 27/20 A2989 RMK A01 T02650201  RH  072%=      5-min Rain = 0
KPFS 242025Z 15015G21KT 26/20 A2989 RMK A01 T02550203  RH  078%=      5-min Rain = 0
KPFS 242030Z 15015G22KT 26/21 A2988 RMK A01 T02570205  RH  078%=      5-min Rain = 0
KPFS 242035Z 15016G21KT 26/20 A2988 RMK A01 T02610202  RH  074%=      5-min Rain = 0
KPFS 242040Z 15016G22KT 26/20 A2988 RMK A01 T02590198  RH  074%=      5-min Rain = 0
KPFS 242045Z 15016G24KT 26/20 A2988 RMK A01 T02600198  RH  073%=      5-min Rain = 0
KPFS 242050Z 15019G26KT 26/20 A2988 RMK A01 T02600197  RH  072%=      5-min Rain = 0
KPFS 242055Z 15019G28KT 26/20 A2987 RMK A01 T02630197  RH  071%=      5-min Rain = 0
KPFS 242100Z 16019G24KT 26/20 A2988 RMK A01 T02630196  RH  070%=      5-min Rain = 0
KPFS 242105Z 15020G28KT 26/19 A2986 RMK A01 T02610194  RH  071%=      5-min Rain = 0
KPFS 242110Z 15019G25KT 26/20 A2985 RMK A01 T02610195  RH  071%=      5-min Rain = 0
KPFS 242115Z 16020G26KT 26/20 A2985 RMK A01 T02620195  RH  070%=      5-min Rain = 0
KPFS 242120Z 16020G27KT 26/19 A2986 RMK A01 T02610193  RH  070%=      5-min Rain = 0
KPFS 242125Z 16016G26KT 26/19 A2988 RMK A01 T02600193  RH  070%=      5-min Rain = 0
KPFS 242130Z 16014G19KT 26/19 A2988 RMK A01 T02590194  RH  072%=      5-min Rain = 0
KPFS 242135Z 16014G20KT 26/19 A2988 RMK A01 T02580194  RH  072%=      5-min Rain = 0
KPFS 242140Z 16015G21KT 26/19 A2987 RMK A01 T02580194  RH  072%=      5-min Rain = 0
KPFS 242145Z 16017G22KT 26/19 A2987 RMK A01 T02590193  RH  071%=      5-min Rain = 0
KPFS 242150Z 16013G20KT 26/19 A2987 RMK A01 T02590193  RH  071%=      5-min Rain = 0
KPFS 242155Z 15014G19KT 26/19 A2986 RMK A01 T02590193  RH  071%=      5-min Rain = 0
KPFS 242200Z 15012G18KT 26/19 A2987 RMK A01 T02600193  RH  071%=      5-min Rain = 0
KPFS 242205Z 16016G22KT 26/19 A2986 RMK A01 T02590192  RH  070%=      5-min Rain = 0
KPFS 242210Z 15014G20KT 26/19 A2986 RMK A01 T02600191  RH  069%=      5-min Rain = 0
KPFS 242215Z 15014G21KT 26/19 A2986 RMK A01 T02600191  RH  070%=      5-min Rain = 0
KPFS 242220Z 15012G17KT 26/19 A2986 RMK A01 T02590191  RH  070%=      5-min Rain = 0
KPFS 242225Z 15012G19KT 26/19 A2987 RMK A01 T02590190  RH  070%=      5-min Rain = 0
KPFS 242230Z 14010G19KT 26/19 A2988 RMK A01 T02600190  RH  069%=      5-min Rain = 0
KPFS 242235Z 03007G12KT 25/18 A2989 RMK A01 T02490177  RH  068%=      5-min Rain = 0
KPFS 242240Z 02010KT 20/15 A2989 RMK A01 T02030153  RH  077%=      5-min Rain = 0
KPFS 242245Z 02007G12KT 20/15 A2988 RMK A01 T01960154  RH  081%=      5-min Rain = 0
KPFS 242250Z 02008G13KT 20/15 A2988 RMK A01 T01950154  RH  081%=      5-min Rain = 0
KPFS 242255Z 00011G18KT 20/15 A2988 RMK A01 T01980154  RH  080%=      5-min Rain = 0
KPFS 242300Z 36008G13KT 20/15 A2988 RMK A01 T02000154  RH  079%=      5-min Rain = 0
KPFS 242305Z 35009KT 20/16 A2988 RMK A01 T02000155  RH  079%=      5-min Rain = 0
KPFS 242310Z 35009KT 20/16 A2988 RMK A01 T01980155  RH  080%=      5-min Rain = 0
KPFS 242315Z 36009KT 20/16 A2988 RMK A01 T01960156  RH  081%=      5-min Rain = 0
KPFS 242320Z 01007KT 20/16 A2989 RMK A01 T01950156  RH  082%=      5-min Rain = 0
KPFS 242325Z 02009KT 19/16 A2988 RMK A01 T01940157  RH  083%=      5-min Rain = 0
KPFS 242330Z 02012G18KT 19/16 A2988 RMK A01 T01910157  RH  085%=      5-min Rain = 0
KPFS 242335Z 03013KT 19/16 A2988 RMK A01 T01890158  RH  086%=      5-min Rain = 0
KPFS 242340Z 00010KT 19/16 A2989 RMK A01 T01880159  RH  087%=      5-min Rain = 0
KPFS 242345Z 00009KT 19/16 A2989 RMK A01 T01880160  RH  088%=      5-min Rain = 0
KPFS 242350Z 01008KT 19/16 A2989 RMK A01 T01870162  RH  089%=      5-min Rain = 0
KPFS 242355Z 02009KT 19/16 A2989 RMK A01 T01870162  RH  089%=      5-min Rain = 0
KPFS 250000Z 03010KT 19/16 A2989 RMK A01 T01870162  RH  090%=      5-min Rain = 0
KPFS 250005Z 02009KT 19/16 A2988 RMK A01 T01880163  RH  090%=      5-min Rain = 0
KPFS 250010Z 02008KT 19/16 A2988 RMK A01 T01880164  RH  090%=      5-min Rain = 0
KPFS 250015Z 02006KT 19/16 A2988 RMK A01 T01890164  RH  090%=      5-min Rain = 0
KPFS 250020Z 02008KT 19/16 A2988 RMK A01 T01890164  RH  090%=      5-min Rain = 0
KPFS 250025Z 01007KT 19/17 A2988 RMK A01 T01900165  RH  090%=      5-min Rain = 0
KPFS 250030Z 02008KT 19/16 A2988 RMK A01 T01900164  RH  089%=      5-min Rain = 0
KPFS 250035Z 02008KT 19/16 A2988 RMK A01 T01900164  RH  089%=      5-min Rain = 0
KPFS 250040Z 02007KT 19/17 A2988 RMK A01 T01910165  RH  089%=      5-min Rain = 0
KPFS 250045Z 03006KT 19/17 A2989 RMK A01 T01910165  RH  089%=      5-min Rain = 0
KPFS 250050Z 02007KT 19/17 A2989 RMK A01 T01910165  RH  089%=      5-min Rain = 0
KPFS 250055Z 02007KT 19/17 A299 RMK A01 T01910165  RH  089%=      5-min Rain = 0
KPFS 250100Z 03006KT 19/17 A299 RMK A01 T01910165  RH  089%=      5-min Rain = 0
KPFS 250105Z 04008KT 19/17 A299 RMK A01 T01910165  RH  089%=      5-min Rain = 0
KPFS 250110Z 05008KT 19/17 A299 RMK A01 T01910165  RH  089%=      5-min Rain = 0
KPFS 250115Z 04008KT 19/17 A299 RMK A01 T01910165  RH  089%=      5-min Rain = 0
KPFS 250120Z 05008KT 19/17 A2991 RMK A01 T01910165  RH  089%=      5-min Rain = 0
KPFS 250125Z 04006KT 19/17 A2991 RMK A01 T01920165  RH  089%=      5-min Rain = 0
KPFS 250130Z 02006KT 19/17 A2991 RMK A01 T01920166  RH  089%=      5-min Rain = 0
KPFS 250135Z 02007KT 19/17 A2991 RMK A01 T01920165  RH  089%=      5-min Rain = 0
KPFS 250140Z 03006KT 19/17 A2991 RMK A01 T01920165  RH  089%=      5-min Rain = 0
KPFS 250145Z 04006KT 19/17 A2991 RMK A01 T01920165  RH  088%=      5-min Rain = 0
KPFS 250150Z 04007KT 19/17 A2991 RMK A01 T01930165  RH  088%=      5-min Rain = 0
KPFS 250155Z 04008KT 19/17 A2991 RMK A01 T01920165  RH  089%=      5-min Rain = 0
KPFS 250200Z 04009KT 19/17 A2991 RMK A01 T01910165  RH  089%=      5-min Rain = 0
KPFS 250205Z 04008KT 19/16 A2991 RMK A01 T01890164  RH  089%=      5-min Rain = 0
KPFS 250210Z 03008KT 19/16 A2991 RMK A01 T01880164  RH  090%=      5-min Rain = 0
KPFS 250215Z 03008KT 19/16 A2991 RMK A01 T01870164  RH  090%=      5-min Rain = 0
KPFS 250220Z 03009KT 19/16 A2991 RMK A01 T01860164  RH  091%=      5-min Rain = 0
KPFS 250225Z 02010KT 19/16 A2991 RMK A01 T01850164  RH  091%=      5-min Rain = 0
KPFS 250230Z 03010KT 19/16 A2991 RMK A01 T01850164  RH  092%=      5-min Rain = 0
KPFS 250235Z 03010KT 18/16 A2991 RMK A01 T01840164  RH  092%=      5-min Rain = 0
KPFS 250240Z 03012KT 18/16 A2991 RMK A01 T01830164  RH  093%=      5-min Rain = 0
KPFS 250245Z 03010G15KT 18/16 A2991 RMK A01 T01820164  RH  093%=      5-min Rain = 0
KPFS 250250Z 03010KT 18/16 A2991 RMK A01 T01810164  RH  094%=      5-min Rain = 0
KPFS 250255Z 03010KT 18/16 A2991 RMK A01 T01810163  RH  094%=      5-min Rain = 0
KPFS 250300Z 02012KT 18/16 A2991 RMK A01 T01800164  RH  094%=      5-min Rain = 0
KPFS 250305Z 03011KT 18/16 A2992 RMK A01 T01800164  RH  095%=      5-min Rain = 0
KPFS 250310Z 02010KT 18/16 A2993 RMK A01 T01790163  RH  095%=      5-min Rain = 0
KPFS 250315Z 02011KT 18/16 A2993 RMK A01 T01790163  RH  095%=      5-min Rain = 0
KPFS 250320Z 02010KT 18/16 A2993 RMK A01 T01790163  RH  095%=      5-min Rain = 0
KPFS 250325Z 03010KT 18/16 A2993 RMK A01 T01780163  RH  095%=      5-min Rain = 0
KPFS 250330Z 02010KT 18/16 A2993 RMK A01 T01780163  RH  096%=      5-min Rain = 0
KPFS 250335Z 02010KT 18/16 A2994 RMK A01 T01780163  RH  096%=      5-min Rain = 0
KPFS 250340Z 02011KT 18/16 A2994 RMK A01 T01780163  RH  096%=      5-min Rain = 0
KPFS 250345Z 03007KT 18/16 A2994 RMK A01 T01780163  RH  096%=      5-min Rain = 0
KPFS 250350Z 06005KT 18/16 A2995 RMK A01 T01780164  RH  096%=      5-min Rain = 0
KPFS 250355Z 05007KT 18/16 A2995 RMK A01 T01790164  RH  096%=      5-min Rain = 0
KPFS 250400Z 03007KT 18/16 A2995 RMK A01 T01790164  RH  095%=      5-min Rain = 0
KPFS 250405Z 02007KT 18/16 A2995 RMK A01 T01790164  RH  095%=      5-min Rain = 0
KPFS 250410Z 03004KT 18/16 A2996 RMK A01 T01790164  RH  095%=      5-min Rain = 0
KPFS 250415Z 04005KT 18/16 A2996 RMK A01 T01790163  RH  095%=      5-min Rain = 0
KPFS 250420Z 04006KT 18/16 A2996 RMK A01 T01790163  RH  095%=      5-min Rain = 0
KPFS 250425Z 05005KT 18/16 A2996 RMK A01 T01790163  RH  095%=      5-min Rain = 0
KPFS 250430Z 05004KT 18/16 A2996 RMK A01 T01790163  RH  095%=      5-min Rain = 0
KPFS 250435Z 04003KT 18/16 A2996 RMK A01 T01780163  RH  095%=      5-min Rain = 0
KPFS 250440Z 01001KT 18/16 A2997 RMK A01 T01790163  RH  095%=      5-min Rain = 0
KPFS 250445Z 02001KT 18/16 A2997 RMK A01 T01790164  RH  095%=      5-min Rain = 0
KPFS 250450Z 03004KT 18/16 A2997 RMK A01 T01790164  RH  095%=      5-min Rain = 0
KPFS 250455Z 04005KT 18/16 A2997 RMK A01 T01790164  RH  095%=      5-min Rain = 0

Page generated in 0.0099 seconds.